Time;durP1;ratioP1;P1;durP2;ratioP2;P2;SDS_P1;SDS_P2;PMS_P1;PMS_P2;Temp;Humidity;BMP_temperature;BMP_pressure;BME280_temperature;BME280_humidity;BME280_pressure;Samples;Min_cycle;Max_cycle;Signal;HPM_P1;HPM_P2
2020/12/20 00:00:18;;;;;;;7.10;5.07;;;-0.60;96.30;;;;;;4994336;28;20178;-77
2020/12/20 00:02:50;;;;;;;9.97;5.20;;;-0.70;96.30;;;;;;4993516;28;20185;-77
2020/12/20 00:05:17;;;;;;;9.50;5.70;;;-0.70;96.30;;;;;;4993154;28;20675;-76
2020/12/20 00:07:43;;;;;;;8.30;5.97;;;-0.60;96.30;;;;;;4994148;28;20503;-77
2020/12/20 00:10:09;;;;;;;10.30;6.60;;;-0.70;96.30;;;;;;4992866;28;20465;-77
2020/12/20 00:12:35;;;;;;;8.63;5.67;;;-0.70;96.30;;;;;;4993340;28;20413;-77
2020/12/20 00:15:01;;;;;;;6.40;4.57;;;-0.70;96.30;;;;;;4993637;28;20255;-77
2020/12/20 00:17:27;;;;;;;11.87;5.50;;;-0.70;96.30;;;;;;4993934;28;20431;-77
2020/12/20 00:19:52;;;;;;;8.90;6.03;;;-0.70;96.30;;;;;;4993904;28;20495;-77
2020/12/20 00:22:18;;;;;;;9.10;5.80;;;-0.70;96.30;;;;;;4993263;28;20189;-77
2020/12/20 00:24:43;;;;;;;7.73;5.40;;;-0.70;96.30;;;;;;4993731;28;20197;-77
2020/12/20 00:27:13;;;;;;;10.03;6.90;;;-0.70;96.30;;;;;;4993785;28;20176;-77
2020/12/20 00:29:39;;;;;;;11.00;7.07;;;-0.70;96.30;;;;;;4993671;28;20737;-77
2020/12/20 00:32:06;;;;;;;9.53;6.47;;;-0.70;96.30;;;;;;4992633;28;20436;-77
2020/12/20 00:34:32;;;;;;;9.37;6.13;;;-0.70;96.30;;;;;;4993616;28;20924;-76
2020/12/20 00:36:57;;;;;;;10.97;6.60;;;-0.70;96.30;;;;;;4993570;28;20540;-77
2020/12/20 00:39:24;;;;;;;8.50;6.43;;;-0.70;96.30;;;;;;4993541;28;20653;-77
2020/12/20 00:41:57;;;;;;;8.10;6.47;;;-0.80;96.30;;;;;;4976891;28;20228;-77
2020/12/20 00:44:24;;;;;;;9.20;6.70;;;-0.70;96.30;;;;;;4974018;28;20436;-77
2020/12/20 00:46:51;;;;;;;11.20;8.37;;;-0.70;96.30;;;;;;4973972;28;20417;-77
2020/12/20 00:49:17;;;;;;;8.50;5.77;;;-0.70;96.30;;;;;;4974042;28;20493;-76
2020/12/20 00:51:42;;;;;;;6.00;3.90;;;-0.70;96.30;;;;;;4977622;28;20489;-76
2020/12/20 00:54:08;;;;;;;8.90;5.40;;;-0.70;96.30;;;;;;4973967;28;20225;-77
2020/12/20 00:56:34;;;;;;;4.67;4.20;;;-0.70;96.30;;;;;;4973856;28;20166;-77
2020/12/20 00:59:00;;;;;;;9.70;6.53;;;-0.70;96.30;;;;;;4972495;28;20581;-77
2020/12/20 05:01:05;;;;;;;9.00;5.83;;;-0.80;96.30;;;;;;5663669;23;20496;-77
2020/12/20 05:03:31;;;;;;;7.47;5.40;;;-0.80;96.30;;;;;;4992484;28;20428;-77
2020/12/20 05:05:56;;;;;;;11.37;6.37;;;-0.80;96.30;;;;;;4991554;28;20444;-77
2020/12/20 05:08:23;;;;;;;10.70;7.20;;;-0.80;96.30;;;;;;4993195;28;20245;-77
2020/12/20 05:10:50;;;;;;;8.93;6.20;;;-0.80;96.30;;;;;;4992969;28;20213;-77
2020/12/20 05:13:20;;;;;;;10.57;6.53;;;-0.90;96.30;;;;;;4993556;28;20492;-77
2020/12/20 05:15:46;;;;;;;10.90;7.40;;;-0.90;96.30;;;;;;4992864;28;20439;-77
2020/12/20 05:18:15;;;;;;;10.23;5.70;;;-0.80;96.30;;;;;;4993141;28;20925;-77
2020/12/20 05:20:41;;;;;;;11.57;6.77;;;-0.80;96.30;;;;;;4993879;28;20804;-77
2020/12/20 05:23:08;;;;;;;10.03;6.87;;;-0.80;96.30;;;;;;4996279;28;20416;-77
2020/12/20 05:25:35;;;;;;;12.13;8.50;;;-0.90;96.30;;;;;;4992963;28;20470;-77
2020/12/20 05:28:15;;;;;;;7.67;5.30;;;-0.90;96.30;;;;;;4992008;28;20500;-77
2020/12/20 05:30:45;;;;;;;12.70;7.83;;;-0.90;96.30;;;;;;5007945;28;20507;-77
2020/12/20 05:33:33;;;;;;;8.27;5.70;;;-0.90;96.30;;;;;;4992627;28;20420;-77
2020/12/20 05:36:07;;;;;;;12.90;8.30;;;-0.90;96.30;;;;;;5007931;28;20413;-77
2020/12/20 05:38:34;;;;;;;13.00;9.53;;;-1.00;96.30;;;;;;4992941;28;20960;-77
2020/12/20 05:41:00;;;;;;;11.40;8.40;;;-1.00;96.30;;;;;;4992704;28;20444;-77
2020/12/20 05:43:28;;;;;;;11.70;7.93;;;-1.00;96.30;;;;;;4992602;28;20988;-77
2020/12/20 05:45:57;;;;;;;10.20;7.10;;;-1.00;96.30;;;;;;4991721;28;20511;-77
2020/12/20 05:48:29;;;;;;;10.53;7.97;;;-1.00;96.30;;;;;;4991266;28;20432;-77
2020/12/20 05:51:06;;;;;;;11.87;8.13;;;-0.90;96.30;;;;;;4992571;28;20809;-77
2020/12/20 05:53:33;;;;;;;11.30;8.00;;;-1.00;96.30;;;;;;4992371;28;20408;-77
2020/12/20 05:56:00;;;;;;;9.73;7.33;;;-1.00;96.30;;;;;;4992654;28;20409;-77
2020/12/20 05:58:30;;;;;;;12.07;8.90;;;-1.00;96.30;;;;;;4992632;28;20408;-77
2020/12/20 06:00:57;;;;;;;7.60;6.40;;;-1.00;96.30;;;;;;4991449;28;20812;-77
2020/12/20 06:03:23;;;;;;;13.17;5.37;;;-1.00;96.30;;;;;;4992245;28;20420;-77
2020/12/20 06:05:49;;;;;;;10.00;6.80;;;-0.90;96.30;;;;;;4992797;28;20421;-77
2020/12/20 06:08:19;;;;;;;13.40;7.53;;;-0.90;96.30;;;;;;4992534;28;20534;-77
2020/12/20 06:10:47;;;;;;;10.87;8.20;;;-1.00;96.30;;;;;;4992529;28;20216;-77
2020/12/20 06:13:17;;;;;;;9.97;7.77;;;-1.00;96.30;;;;;;4992239;28;20412;-78
2020/12/20 06:15:43;;;;;;;10.93;7.80;;;-1.00;96.30;;;;;;4992384;28;20783;-77
2020/12/20 06:18:10;;;;;;;10.03;7.33;;;-1.00;96.30;;;;;;4992444;28;20498;-77
2020/12/20 06:20:48;;;;;;;9.30;7.30;;;-1.10;96.30;;;;;;4992431;28;20429;-77
2020/12/20 06:23:18;;;;;;;7.40;5.67;;;-1.10;96.30;;;;;;4992226;28;20402;-77
2020/12/20 06:25:45;;;;;;;9.87;6.50;;;-1.00;96.30;;;;;;4992342;28;20904;-77
2020/12/20 06:28:23;;;;;;;7.90;6.20;;;-1.00;96.30;;;;;;4992304;28;20408;-77
2020/12/20 06:30:49;;;;;;;8.73;6.67;;;-1.00;96.30;;;;;;4991011;28;20474;-77
2020/12/20 06:33:24;;;;;;;11.73;7.03;;;-1.00;96.30;;;;;;4987690;28;20426;-77
2020/12/20 06:35:51;;;;;;;7.83;5.00;;;-1.00;96.30;;;;;;4987581;28;20420;-78
2020/12/20 06:38:22;;;;;;;12.10;7.47;;;-1.00;96.30;;;;;;4984495;28;20420;-78
2020/12/20 06:40:48;;;;;;;7.50;5.67;;;-1.00;96.30;;;;;;4987777;28;20539;-79
2020/12/20 06:43:14;;;;;;;10.67;8.27;;;-1.00;96.30;;;;;;4983859;28;20494;-78
2020/12/20 06:45:42;;;;;;;10.40;7.20;;;-1.00;96.30;;;;;;4990573;28;20428;-79
2020/12/20 06:48:09;;;;;;;10.87;7.63;;;-1.00;96.30;;;;;;4982350;28;20189;-79
2020/12/20 06:50:38;;;;;;;8.00;5.30;;;-1.00;96.30;;;;;;4995014;28;20534;-78
2020/12/20 06:53:04;;;;;;;11.37;7.23;;;-1.00;96.30;;;;;;4994425;28;20413;-79
2020/12/20 06:55:29;;;;;;;10.93;7.70;;;-0.90;96.30;;;;;;4993988;28;20790;-79
2020/12/20 06:58:14;;;;;;;11.93;7.40;;;-0.90;96.30;;;;;;4994685;28;20410;-78
2020/12/20 07:00:57;;;;;;;10.30;7.37;;;-0.90;96.30;;;;;;4994802;28;20213;-79
2020/12/20 07:03:30;;;;;;;13.07;7.90;;;-0.90;96.30;;;;;;4992405;28;20785;-79
2020/12/20 07:06:12;;;;;;;10.30;6.43;;;-0.90;96.30;;;;;;4990462;28;20421;-79
2020/12/20 07:08:38;;;;;;;8.43;7.07;;;-0.80;96.30;;;;;;4986120;28;20963;-79
2020/12/20 07:11:18;;;;;;;10.77;6.73;;;-0.80;96.30;;;;;;4988989;28;20468;-78
2020/12/20 07:13:46;;;;;;;11.80;7.33;;;-0.80;96.30;;;;;;4994299;28;20228;-78
2020/12/20 07:16:19;;;;;;;9.27;6.50;;;-0.80;96.30;;;;;;4994695;28;20417;-79
2020/12/20 07:18:46;;;;;;;10.67;6.40;;;-0.80;96.30;;;;;;4987620;28;20421;-79
2020/12/20 07:21:52;;;;;;;8.10;5.23;;;-0.70;96.30;;;;;;4994795;28;20441;-79
2020/12/20 07:24:29;;;;;;;11.43;7.97;;;-0.70;96.30;;;;;;4984883;28;20432;-79
2020/12/20 07:26:59;;;;;;;9.93;8.20;;;-0.70;96.30;;;;;;4989932;28;20524;-79
2020/12/20 07:29:24;;;;;;;11.63;7.00;;;-0.70;96.30;;;;;;4991798;28;21021;-78
2020/12/20 07:31:55;;;;;;;9.70;6.30;;;-0.70;96.30;;;;;;4992587;28;20519;-78
2020/12/20 07:34:22;;;;;;;7.77;5.30;;;-0.70;96.30;;;;;;4987272;28;20205;-79
2020/12/20 07:36:47;;;;;;;12.40;7.77;;;-0.60;96.30;;;;;;4994419;28;20409;-79
2020/12/20 07:39:14;;;;;;;13.33;7.43;;;-0.60;96.30;;;;;;4988056;28;20429;-78
2020/12/20 07:41:39;;;;;;;9.27;7.00;;;-0.60;96.30;;;;;;4985435;28;20263;-79
2020/12/20 07:44:09;;;;;;;9.60;6.63;;;-0.60;96.30;;;;;;4990349;28;20504;-78
2020/12/20 07:46:35;;;;;;;8.03;6.03;;;-0.50;96.30;;;;;;4994018;28;20256;-78
2020/12/20 07:49:06;;;;;;;8.90;5.73;;;-0.50;96.30;;;;;;4992806;28;20435;-78
2020/12/20 07:51:32;;;;;;;9.93;7.23;;;-0.50;96.30;;;;;;4986427;28;20472;-80
2020/12/20 07:53:59;;;;;;;9.67;7.40;;;-0.40;96.30;;;;;;4989251;28;21194;-79
2020/12/20 07:56:32;;;;;;;11.70;6.70;;;-0.40;96.30;;;;;;4987086;28;20441;-79
2020/12/20 07:59:05;;;;;;;8.03;5.07;;;-0.40;96.30;;;;;;4989353;28;20985;-79
2020/12/20 08:01:31;;;;;;;9.40;6.97;;;-0.40;96.30;;;;;;4991597;28;20471;-78
2020/12/20 08:04:07;;;;;;;9.50;6.33;;;-0.30;96.30;;;;;;4993394;28;20424;-77
2020/12/20 08:06:38;;;;;;;9.80;6.67;;;-0.30;96.30;;;;;;4993571;28;20415;-78
2020/12/20 08:09:12;;;;;;;6.80;4.77;;;-0.30;96.30;;;;;;4992016;28;20573;-78
2020/12/20 08:11:39;;;;;;;5.20;4.70;;;-0.20;96.30;;;;;;4982973;28;21039;-77
2020/12/20 08:14:07;;;;;;;9.80;7.50;;;-0.30;96.30;;;;;;4986677;28;20420;-78
2020/12/20 08:16:37;;;;;;;7.70;6.60;;;-0.20;96.30;;;;;;4983053;28;20448;-78
2020/12/20 08:19:25;;;;;;;8.07;6.40;;;-0.20;96.30;;;;;;4990800;28;20436;-78
2020/12/20 08:22:12;;;;;;;8.70;6.30;;;-0.20;96.30;;;;;;4986703;28;20428;-78
2020/12/20 08:24:43;;;;;;;10.07;5.87;;;-0.10;96.30;;;;;;4974566;28;20914;-78
2020/12/20 08:27:15;;;;;;;6.07;4.40;;;-0.10;96.30;;;;;;4994189;28;20818;-78
2020/12/20 08:29:45;;;;;;;11.80;7.60;;;0.00;96.30;;;;;;4993772;28;20413;-78
2020/12/20 08:32:16;;;;;;;9.73;6.00;;;0.00;96.30;;;;;;4993622;28;20439;-79
2020/12/20 08:34:42;;;;;;;6.03;4.70;;;0.00;96.30;;;;;;4992699;28;20416;-77
2020/12/20 08:37:19;;;;;;;12.30;7.23;;;0.10;96.30;;;;;;4994091;28;20412;-78
2020/12/20 08:39:45;;;;;;;9.63;6.60;;;0.10;96.30;;;;;;4993794;28;20165;-78
2020/12/20 08:42:13;;;;;;;8.17;6.70;;;0.10;96.30;;;;;;4993489;28;20536;-78
2020/12/20 08:44:40;;;;;;;9.27;5.77;;;0.10;96.30;;;;;;4993763;28;20404;-78
2020/12/20 08:47:14;;;;;;;7.97;5.83;;;0.00;96.30;;;;;;4993758;28;20923;-79
2020/12/20 08:49:42;;;;;;;7.87;5.80;;;0.10;96.30;;;;;;4993689;28;20802;-78
2020/12/20 08:52:13;;;;;;;6.43;4.90;;;0.10;96.30;;;;;;4993367;28;20436;-78
2020/12/20 08:54:39;;;;;;;10.70;7.90;;;0.10;96.30;;;;;;4993961;28;20822;-78
2020/12/20 08:57:12;;;;;;;10.13;6.83;;;0.20;96.30;;;;;;4993828;28;20419;-78
2020/12/20 08:59:40;;;;;;;11.23;6.37;;;0.10;96.30;;;;;;4993294;28;20496;-79
2020/12/20 09:02:07;;;;;;;10.20;7.10;;;0.10;96.30;;;;;;4988245;28;20458;-78
2020/12/20 09:04:37;;;;;;;13.13;8.87;;;0.20;96.30;;;;;;4989030;28;20491;-78
2020/12/20 09:07:12;;;;;;;11.87;8.67;;;0.20;96.30;;;;;;4974092;28;20418;-78
2020/12/20 09:09:38;;;;;;;11.03;6.97;;;0.20;96.30;;;;;;4972531;28;20421;-78
2020/12/20 09:12:19;;;;;;;11.47;5.47;;;0.30;96.30;;;;;;4973587;28;20436;-78
2020/12/20 09:15:10;;;;;;;11.60;7.90;;;0.30;96.30;;;;;;4972693;28;20418;-78
2020/12/20 09:17:44;;;;;;;10.13;6.40;;;0.30;96.30;;;;;;4973852;28;20502;-78
2020/12/20 09:20:12;;;;;;;6.90;5.00;;;0.30;96.30;;;;;;4973716;28;20768;-78
2020/12/20 09:22:47;;;;;;;5.90;4.13;;;0.30;96.30;;;;;;4985231;28;20511;-78
2020/12/20 09:25:14;;;;;;;9.60;6.67;;;0.40;96.30;;;;;;4985462;28;21321;-78
2020/12/20 09:27:52;;;;;;;8.60;5.57;;;0.40;96.30;;;;;;5000211;28;20504;-78
2020/12/20 09:30:28;;;;;;;7.87;4.97;;;0.50;96.30;;;;;;4999063;28;20460;-78
2020/12/20 09:32:54;;;;;;;6.30;5.37;;;0.50;96.30;;;;;;4993251;28;20404;-78
2020/12/20 09:35:19;;;;;;;9.50;6.50;;;0.40;96.30;;;;;;4992367;28;20416;-78
2020/12/20 09:37:45;;;;;;;7.00;5.80;;;0.40;96.30;;;;;;4991575;28;20623;-78
2020/12/20 09:40:10;;;;;;;9.50;7.23;;;0.40;96.30;;;;;;4992697;28;20189;-78
2020/12/20 09:42:40;;;;;;;7.40;6.00;;;0.50;96.30;;;;;;4992356;28;20184;-78
2020/12/20 09:45:08;;;;;;;8.80;6.73;;;0.50;96.30;;;;;;4992795;28;20665;-78
2020/12/20 09:47:44;;;;;;;8.50;6.00;;;0.50;96.30;;;;;;4990031;28;20413;-78
2020/12/20 09:50:11;;;;;;;8.77;7.13;;;0.60;96.30;;;;;;4990414;28;21117;-78
2020/12/20 09:52:37;;;;;;;9.03;6.50;;;0.70;96.30;;;;;;4992124;28;20901;-78
2020/12/20 09:55:05;;;;;;;12.93;7.13;;;0.70;96.30;;;;;;4992594;28;20548;-78
2020/12/20 09:57:31;;;;;;;12.83;6.27;;;0.70;96.30;;;;;;4989548;28;20511;-78
2020/12/20 09:59:57;;;;;;;8.80;6.50;;;0.70;96.30;;;;;;4992093;28;20424;-78
2020/12/20 10:02:22;;;;;;;8.53;6.67;;;0.70;96.30;;;;;;4988646;28;20961;-78
2020/12/20 10:04:48;;;;;;;10.43;7.07;;;0.70;96.30;;;;;;4992368;28;20173;-78
2020/12/20 10:07:13;;;;;;;11.07;6.67;;;0.80;96.30;;;;;;4988022;28;20190;-78
2020/12/20 10:09:39;;;;;;;7.73;6.20;;;0.70;96.30;;;;;;4988690;28;20204;-78
2020/12/20 10:12:06;;;;;;;9.70;7.23;;;0.90;96.30;;;;;;4985191;28;20241;-78
2020/12/20 10:14:33;;;;;;;8.63;6.17;;;0.80;96.30;;;;;;4993749;28;20424;-78
2020/12/20 10:16:58;;;;;;;13.17;6.23;;;0.80;96.30;;;;;;4995900;28;20415;-79
2020/12/20 10:19:24;;;;;;;6.70;5.10;;;0.80;96.30;;;;;;4996134;28;20416;-78
2020/12/20 10:21:51;;;;;;;6.33;5.60;;;0.80;96.30;;;;;;4995701;28;20197;-78
2020/12/20 10:24:17;;;;;;;9.63;5.33;;;0.80;96.30;;;;;;4986114;28;20212;-78
2020/12/20 10:26:44;;;;;;;7.10;5.33;;;1.00;96.30;;;;;;4988321;28;20463;-78
2020/12/20 10:29:13;;;;;;;7.17;6.03;;;1.30;96.30;;;;;;4989927;28;20479;-78
2020/12/20 10:31:41;;;;;;;9.87;5.83;;;1.50;96.30;;;;;;4992902;28;20931;-78
2020/12/20 10:34:07;;;;;;;9.17;4.77;;;1.90;96.30;;;;;;4996224;28;20425;-78
2020/12/20 10:36:34;;;;;;;8.03;5.23;;;2.20;96.30;;;;;;5011337;28;20911;-78
2020/12/20 10:38:59;;;;;;;7.67;4.93;;;2.10;96.30;;;;;;4989832;28;20440;-78
2020/12/20 10:41:25;;;;;;;6.57;4.87;;;2.10;96.30;;;;;;4995812;28;20479;-78
2020/12/20 10:43:51;;;;;;;7.23;5.47;;;2.40;96.30;;;;;;4995315;28;20261;-78
2020/12/20 10:46:16;;;;;;;8.57;4.30;;;2.60;96.30;;;;;;4995330;28;20186;-78
2020/12/20 10:48:42;;;;;;;8.67;4.20;;;2.10;96.30;;;;;;4988176;28;20193;-79
2020/12/20 10:51:10;;;;;;;6.20;4.70;;;2.50;96.30;;;;;;4976692;28;20217;-79
2020/12/20 10:53:36;;;;;;;13.93;4.13;;;2.50;96.30;;;;;;4975023;28;20174;-79
2020/12/20 10:56:02;;;;;;;6.23;5.03;;;2.30;96.30;;;;;;4976724;28;20464;-79
2020/12/20 10:58:27;;;;;;;6.00;4.87;;;2.60;96.30;;;;;;4976339;28;20406;-79
2020/12/20 11:00:53;;;;;;;6.53;5.83;;;2.70;96.30;;;;;;4988884;28;20703;-79
2020/12/20 11:03:18;;;;;;;5.17;3.33;;;2.80;96.30;;;;;;4993414;28;20344;-78
2020/12/20 11:05:44;;;;;;;7.30;4.33;;;2.50;96.30;;;;;;4988203;28;20188;-78
2020/12/20 11:08:09;;;;;;;9.47;3.90;;;2.30;96.30;;;;;;4987241;28;20181;-77
2020/12/20 11:10:34;;;;;;;6.20;4.00;;;2.30;96.30;;;;;;5001834;28;20262;-77
2020/12/20 11:13:00;;;;;;;5.33;3.83;;;2.40;96.30;;;;;;4985410;28;20178;-78
2020/12/20 11:15:25;;;;;;;8.30;4.53;;;2.20;96.30;;;;;;4987103;28;20181;-77
2020/12/20 11:17:51;;;;;;;10.67;5.27;;;2.00;96.30;;;;;;4988468;28;20925;-77
2020/12/20 11:20:16;;;;;;;5.97;4.03;;;1.80;96.30;;;;;;4985978;28;20189;-77
2020/12/20 11:22:42;;;;;;;7.60;4.20;;;1.50;96.30;;;;;;4987937;28;20206;-77
2020/12/20 11:25:08;;;;;;;4.80;3.93;;;1.70;96.30;;;;;;4989943;28;20173;-77
2020/12/20 11:27:33;;;;;;;4.30;3.50;;;1.70;96.30;;;;;;4991802;28;20189;-77
2020/12/20 11:29:59;;;;;;;4.00;3.30;;;2.00;96.30;;;;;;4981987;28;20252;-77
2020/12/20 11:32:24;;;;;;;6.97;4.80;;;2.00;96.30;;;;;;4991402;28;20205;-77
2020/12/20 11:34:50;;;;;;;7.70;4.23;;;2.30;96.30;;;;;;4987154;28;20260;-77
2020/12/20 11:37:15;;;;;;;7.33;3.83;;;2.20;96.30;;;;;;4984646;28;20735;-77
2020/12/20 11:39:41;;;;;;;5.77;2.90;;;2.30;96.30;;;;;;4986449;28;20180;-77
2020/12/20 11:42:12;;;;;;;3.57;3.23;;;2.30;96.30;;;;;;4992167;28;20273;-77
2020/12/20 11:44:37;;;;;;;7.00;4.50;;;2.10;96.30;;;;;;4989692;28;20182;-77
2020/12/20 11:47:03;;;;;;;6.27;4.73;;;2.00;96.30;;;;;;4987090;28;20417;-77
2020/12/20 11:49:28;;;;;;;5.20;4.30;;;2.20;96.30;;;;;;4984005;28;20249;-77
2020/12/20 11:51:57;;;;;;;7.47;4.37;;;2.10;96.30;;;;;;4989064;28;20205;-77
2020/12/20 11:54:23;;;;;;;9.93;4.47;;;2.00;96.30;;;;;;4984858;28;20174;-77
2020/12/20 11:56:48;;;;;;;6.47;4.30;;;2.00;96.30;;;;;;4986955;28;20488;-77
2020/12/20 11:59:14;;;;;;;7.13;4.77;;;2.00;96.30;;;;;;4983426;28;20261;-77
2020/12/20 12:01:39;;;;;;;4.83;4.27;;;2.20;96.30;;;;;;4983502;28;20212;-77
2020/12/20 12:04:04;;;;;;;7.00;4.30;;;2.10;96.30;;;;;;4992265;28;20177;-77
2020/12/20 12:06:31;;;;;;;5.67;4.60;;;2.20;96.30;;;;;;4982377;28;20186;-77
2020/12/20 12:08:56;;;;;;;11.50;6.30;;;2.20;96.30;;;;;;4985827;28;20233;-77
2020/12/20 12:11:22;;;;;;;5.97;5.30;;;2.20;96.30;;;;;;4988727;28;20547;-77
2020/12/20 12:13:48;;;;;;;6.33;4.70;;;2.40;96.30;;;;;;4986822;28;20178;-77
2020/12/20 12:16:18;;;;;;;9.87;5.40;;;2.20;96.30;;;;;;4985452;28;20181;-77
2020/12/20 12:18:43;;;;;;;7.00;5.27;;;2.40;96.30;;;;;;4987268;28;20425;-77
2020/12/20 12:21:14;;;;;;;4.50;3.70;;;2.60;96.30;;;;;;4984389;28;20448;-77
2020/12/20 12:23:40;;;;;;;6.27;3.83;;;2.60;96.30;;;;;;4989461;28;20208;-77
2020/12/20 12:26:06;;;;;;;5.87;4.23;;;2.50;96.30;;;;;;4993448;28;20904;-77
2020/12/20 12:28:32;;;;;;;5.73;3.57;;;2.00;96.30;;;;;;4993672;28;20189;-77
2020/12/20 12:30:57;;;;;;;4.30;3.57;;;2.10;96.30;;;;;;4990545;28;20484;-76
2020/12/20 12:33:23;;;;;;;5.73;4.80;;;2.10;96.30;;;;;;4992209;28;20189;-76
2020/12/20 12:35:48;;;;;;;4.30;3.80;;;2.00;96.30;;;;;;4993213;28;20185;-77
2020/12/20 12:38:14;;;;;;;5.13;3.97;;;2.00;96.30;;;;;;4993300;28;20185;-77
2020/12/20 12:40:39;;;;;;;6.07;4.70;;;2.00;96.30;;;;;;4989070;28;20664;-77
2020/12/20 12:43:05;;;;;;;4.53;4.13;;;2.10;96.30;;;;;;4991219;28;20185;-76
2020/12/20 12:45:30;;;;;;;5.00;4.13;;;2.10;96.30;;;;;;4991946;28;20212;-76
2020/12/20 12:47:56;;;;;;;4.73;3.70;;;1.90;96.30;;;;;;4993486;28;20185;-77
2020/12/20 12:50:21;;;;;;;6.60;3.70;;;1.90;96.30;;;;;;5014958;23;20282;-77
2020/12/20 12:52:47;;;;;;;5.83;4.30;;;1.80;96.30;;;;;;4971114;28;20194;-77
2020/12/20 12:55:12;;;;;;;5.40;4.37;;;1.80;96.30;;;;;;4966710;28;20185;-76
2020/12/20 12:57:38;;;;;;;4.40;3.87;;;1.80;96.30;;;;;;4953775;28;20179;-76
2020/12/20 13:00:04;;;;;;;4.90;3.83;;;1.60;96.30;;;;;;4963654;28;20302;-76
2020/12/20 13:02:32;;;;;;;6.27;4.70;;;1.40;96.30;;;;;;4954450;28;20189;-77
2020/12/20 13:04:58;;;;;;;5.23;4.50;;;1.50;96.30;;;;;;4964009;28;20777;-77
2020/12/20 13:07:25;;;;;;;9.17;5.00;;;1.50;96.30;;;;;;4973160;28;20508;-77
2020/12/20 13:09:50;;;;;;;6.10;5.23;;;1.40;96.30;;;;;;4973140;28;20217;-77
2020/12/20 13:12:16;;;;;;;5.93;4.80;;;1.50;96.30;;;;;;4972257;28;20433;-76
2020/12/20 13:14:42;;;;;;;10.93;6.60;;;1.40;96.30;;;;;;4960435;28;20185;-76
2020/12/20 13:17:07;;;;;;;5.30;4.40;;;1.50;96.30;;;;;;4954411;28;20217;-76
2020/12/20 13:19:33;;;;;;;5.37;3.50;;;1.50;96.30;;;;;;4954332;28;20219;-76
2020/12/20 13:21:58;;;;;;;5.63;3.70;;;1.50;96.30;;;;;;4952475;28;20278;-76
2020/12/20 13:24:25;;;;;;;5.57;4.20;;;1.30;96.30;;;;;;4954365;28;20266;-76
2020/12/20 13:26:50;;;;;;;2.83;2.43;;;1.20;96.30;;;;;;4954244;28;20178;-76
2020/12/20 13:29:16;;;;;;;3.50;2.70;;;1.30;96.30;;;;;;4953948;28;20434;-76
2020/12/20 13:31:41;;;;;;;4.67;3.83;;;1.10;96.30;;;;;;4952750;28;20678;-76
2020/12/20 13:34:07;;;;;;;4.30;2.50;;;1.10;96.30;;;;;;4955818;28;20178;-76
2020/12/20 13:36:32;;;;;;;4.67;3.83;;;1.10;96.30;;;;;;4972527;28;20181;-76
2020/12/20 13:38:58;;;;;;;3.90;3.27;;;0.90;96.30;;;;;;4973020;28;20198;-76
2020/12/20 13:41:23;;;;;;;3.33;2.90;;;1.00;96.30;;;;;;4961546;28;20313;-76
2020/12/20 13:43:49;;;;;;;5.93;3.83;;;0.90;96.30;;;;;;4953822;28;20702;-77
2020/12/20 13:46:15;;;;;;;4.50;3.70;;;0.90;96.30;;;;;;4954120;28;20183;-77
2020/12/20 13:48:40;;;;;;;5.83;4.10;;;0.80;96.30;;;;;;4953033;28;20192;-77
2020/12/20 13:51:07;;;;;;;5.70;5.20;;;0.80;96.30;;;;;;4972382;28;20697;-76
2020/12/20 13:53:32;;;;;;;4.67;4.23;;;0.70;96.30;;;;;;4971426;28;20182;-76
2020/12/20 13:55:58;;;;;;;4.87;3.90;;;0.70;96.30;;;;;;4972645;28;20416;-77
2020/12/20 13:58:23;;;;;;;6.77;4.63;;;0.60;96.30;;;;;;4972484;28;20174;-77
2020/12/20 14:00:49;;;;;;;4.80;3.90;;;0.60;96.30;;;;;;4971331;28;20269;-77
2020/12/20 14:03:14;;;;;;;5.20;4.03;;;0.60;96.30;;;;;;4964245;28;20242;-77
2020/12/20 14:05:41;;;;;;;4.80;3.67;;;0.50;96.30;;;;;;4959987;28;20182;-77
2020/12/20 14:08:06;;;;;;;4.67;3.40;;;0.50;96.30;;;;;;4972914;28;20178;-77
2020/12/20 14:10:32;;;;;;;5.70;4.50;;;0.40;96.30;;;;;;4972535;28;20556;-77
2020/12/20 14:12:57;;;;;;;5.37;3.80;;;0.40;96.30;;;;;;4962271;28;20187;-77
2020/12/20 14:15:24;;;;;;;4.90;4.37;;;0.40;96.30;;;;;;4953771;28;20178;-77
2020/12/20 14:17:49;;;;;;;5.57;3.80;;;0.30;96.30;;;;;;4955744;28;20635;-77
2020/12/20 14:20:15;;;;;;;9.23;5.70;;;0.30;96.30;;;;;;4965373;28;20489;-77
2020/12/20 14:22:41;;;;;;;18.43;13.17;;;0.20;96.30;;;;;;4963966;28;20666;-77
2020/12/20 14:25:06;;;;;;;4.73;3.53;;;0.20;96.30;;;;;;4964369;28;20179;-77
2020/12/20 14:27:32;;;;;;;6.90;4.63;;;0.20;96.30;;;;;;4972700;28;20638;-77
2020/12/20 14:29:58;;;;;;;8.80;6.60;;;0.20;96.30;;;;;;4955427;28;20211;-77
2020/12/20 14:32:24;;;;;;;9.10;5.53;;;0.10;96.30;;;;;;4970811;28;20186;-77
2020/12/20 14:34:49;;;;;;;18.53;10.90;;;0.10;96.30;;;;;;4970920;28;20545;-77
2020/12/20 14:37:15;;;;;;;6.87;4.70;;;0.00;96.30;;;;;;4971506;28;20178;-77
2020/12/20 14:39:42;;;;;;;6.57;5.10;;;0.00;96.30;;;;;;4957769;28;20199;-77
2020/12/20 14:42:11;;;;;;;5.90;4.80;;;0.00;96.30;;;;;;4955760;28;20181;-77
2020/12/20 14:44:37;;;;;;;5.90;3.63;;;0.00;96.30;;;;;;4972654;28;20969;-77
2020/12/20 14:47:03;;;;;;;9.07;6.87;;;0.00;96.30;;;;;;4962381;28;20411;-77
2020/12/20 14:49:29;;;;;;;7.80;6.27;;;0.00;96.30;;;;;;4957728;28;20470;-77
2020/12/20 14:51:55;;;;;;;7.50;5.87;;;-0.10;96.30;;;;;;4972316;28;20961;-77
2020/12/20 14:54:20;;;;;;;7.47;5.30;;;-0.10;96.30;;;;;;4966618;28;20178;-77
2020/12/20 14:56:53;;;;;;;12.23;7.50;;;-0.10;96.30;;;;;;4971067;28;20228;-77
2020/12/20 14:59:19;;;;;;;5.87;4.97;;;-0.10;96.30;;;;;;4973665;28;20186;-77
2020/12/20 15:01:52;;;;;;;9.20;6.90;;;-0.10;96.30;;;;;;4965244;28;20507;-77
2020/12/20 15:04:18;;;;;;;12.57;9.00;;;-0.10;96.30;;;;;;4957041;28;20216;-76
2020/12/20 15:06:44;;;;;;;8.50;6.47;;;-0.20;96.30;;;;;;4956577;28;20449;-77
2020/12/20 15:09:10;;;;;;;22.20;14.23;;;-0.20;96.30;;;;;;4971453;28;20469;-77
2020/12/20 15:11:36;;;;;;;17.77;11.77;;;-0.20;96.30;;;;;;4989773;28;20289;-77
2020/12/20 15:14:03;;;;;;;8.97;7.13;;;-0.20;96.30;;;;;;4975520;28;20187;-76
2020/12/20 15:16:29;;;;;;;11.20;6.50;;;-0.20;96.30;;;;;;4971835;28;20948;-76
2020/12/20 15:18:55;;;;;;;8.23;6.67;;;-0.30;96.30;;;;;;4973239;28;20430;-77
2020/12/20 15:21:20;;;;;;;10.90;7.43;;;-0.30;96.30;;;;;;4975125;28;20182;-77
2020/12/20 15:23:46;;;;;;;6.03;4.97;;;-0.30;96.30;;;;;;4975176;28;20428;-77
2020/12/20 15:26:18;;;;;;;6.53;5.03;;;-0.30;96.30;;;;;;4975433;28;20201;-77
2020/12/20 15:28:44;;;;;;;12.67;6.53;;;-0.30;96.30;;;;;;4977574;28;20190;-76
2020/12/20 15:31:10;;;;;;;9.13;6.20;;;-0.30;96.30;;;;;;4965874;28;20458;-77
2020/12/20 15:33:36;;;;;;;7.77;5.83;;;-0.30;96.30;;;;;;4955640;28;20261;-77
2020/12/20 15:36:01;;;;;;;8.57;5.87;;;-0.40;96.30;;;;;;4954948;28;20477;-77
2020/12/20 15:38:27;;;;;;;9.73;7.93;;;-0.40;96.30;;;;;;4956223;28;20698;-77
2020/12/20 15:40:52;;;;;;;9.73;7.47;;;-0.40;96.30;;;;;;4964354;28;20274;-77
2020/12/20 15:43:18;;;;;;;9.27;6.50;;;-0.40;96.30;;;;;;4963342;28;20638;-77
2020/12/20 15:45:43;;;;;;;10.77;7.33;;;-0.50;96.30;;;;;;4965412;28;20670;-77
2020/12/20 15:48:09;;;;;;;11.00;6.10;;;-0.50;96.30;;;;;;4974052;28;20241;-77
2020/12/20 15:50:34;;;;;;;6.60;5.47;;;-0.40;96.30;;;;;;4962613;28;20211;-77
2020/12/20 15:53:00;;;;;;;9.70;7.13;;;-0.50;96.30;;;;;;4955724;28;20179;-77
2020/12/20 15:55:25;;;;;;;8.77;6.37;;;-0.50;96.30;;;;;;4965225;28;20654;-77
2020/12/20 15:57:51;;;;;;;11.77;8.10;;;-0.50;96.30;;;;;;4970703;28;20178;-76
2020/12/20 16:00:16;;;;;;;8.63;6.70;;;-0.50;96.30;;;;;;4972889;28;20206;-77
2020/12/20 16:02:42;;;;;;;9.70;7.87;;;-0.40;96.30;;;;;;4972718;28;20190;-77
2020/12/20 16:05:10;;;;;;;9.90;6.43;;;-0.40;96.30;;;;;;4969922;28;20206;-77
2020/12/20 16:07:35;;;;;;;11.03;7.73;;;-0.40;96.30;;;;;;4974569;28;20673;-76
2020/12/20 16:10:01;;;;;;;9.57;5.70;;;-0.40;96.30;;;;;;4973467;28;20462;-77
2020/12/20 16:12:26;;;;;;;10.13;7.80;;;-0.40;96.30;;;;;;4967361;28;20549;-77
2020/12/20 16:14:51;;;;;;;7.23;6.37;;;-0.40;96.30;;;;;;4973821;28;20658;-77
2020/12/20 16:17:17;;;;;;;8.90;6.60;;;-0.40;96.30;;;;;;4975947;28;20268;-76
2020/12/20 16:19:42;;;;;;;8.80;6.37;;;-0.30;96.30;;;;;;4974855;28;20190;-77
2020/12/20 16:22:08;;;;;;;12.63;8.53;;;-0.40;96.30;;;;;;4971988;28;20174;-76
2020/12/20 16:24:33;;;;;;;9.57;7.40;;;-0.30;96.30;;;;;;4962432;28;20542;-77
2020/12/20 16:26:59;;;;;;;7.23;5.27;;;-0.30;96.30;;;;;;4961707;28;20537;-77
2020/12/20 16:29:25;;;;;;;11.00;8.07;;;-0.30;96.30;;;;;;4960379;28;20268;-77
2020/12/20 16:31:56;;;;;;;7.43;5.53;;;-0.30;96.30;;;;;;4990452;28;20216;-76
2020/12/20 16:34:32;;;;;;;8.63;7.20;;;-0.30;96.30;;;;;;4969176;28;20877;-77
2020/12/20 16:36:58;;;;;;;9.83;6.33;;;-0.30;96.30;;;;;;4968230;28;20438;-77
2020/12/20 16:39:26;;;;;;;11.37;7.07;;;-0.30;96.30;;;;;;4958931;28;20518;-76
2020/12/20 16:41:52;;;;;;;6.87;5.03;;;-0.30;96.30;;;;;;4971266;28;20453;-77
2020/12/20 16:44:18;;;;;;;11.90;8.20;;;-0.30;96.30;;;;;;4964500;28;20426;-77
2020/12/20 16:46:47;;;;;;;13.87;8.33;;;-0.20;96.30;;;;;;4958945;28;20425;-77
2020/12/20 16:49:13;;;;;;;8.80;6.90;;;-0.20;96.30;;;;;;4968318;28;20224;-76